sensor_id;sensor_type;location;lat;lon;timestamp;pressure;altitude;pressure_sealevel;temperature;humidity
7309;BME280;3695;53.330;9.876;2023-12-07T00:01:56;100740.16;;;5.14;67.65
7309;BME280;3695;53.330;9.876;2023-12-07T00:04:23;100747.31;;;5.01;67.35
7309;BME280;3695;53.330;9.876;2023-12-07T00:06:49;100753.09;;;4.94;66.96
7309;BME280;3695;53.330;9.876;2023-12-07T00:09:17;100749.69;;;4.77;67.12
7309;BME280;3695;53.330;9.876;2023-12-07T00:11:43;100748.09;;;4.61;67.52
7309;BME280;3695;53.330;9.876;2023-12-07T00:14:09;100753.59;;;5.04;67.87
7309;BME280;3695;53.330;9.876;2023-12-07T00:16:36;100754.84;;;4.95;67.77
7309;BME280;3695;53.330;9.876;2023-12-07T00:19:03;100753.91;;;4.93;67.03
7309;BME280;3695;53.330;9.876;2023-12-07T00:21:29;100759.13;;;4.93;67.06
7309;BME280;3695;53.330;9.876;2023-12-07T00:23:56;100761.84;;;4.96;67.31
7309;BME280;3695;53.330;9.876;2023-12-07T00:26:24;100750.94;;;4.48;67.17
7309;BME280;3695;53.330;9.876;2023-12-07T00:28:50;100748.38;;;4.67;68.05
7309;BME280;3695;53.330;9.876;2023-12-07T00:31:17;100750.69;;;4.61;67.42
7309;BME280;3695;53.330;9.876;2023-12-07T00:33:45;100758.78;;;4.67;67.81
7309;BME280;3695;53.330;9.876;2023-12-07T00:36:12;100763.19;;;4.68;67.76
7309;BME280;3695;53.330;9.876;2023-12-07T00:38:38;100756.88;;;4.63;67.56
7309;BME280;3695;53.330;9.876;2023-12-07T00:41:06;100755.31;;;4.49;68.04
7309;BME280;3695;53.330;9.876;2023-12-07T00:43:34;100757.69;;;4.62;67.82
7309;BME280;3695;53.330;9.876;2023-12-07T00:46:00;100759.59;;;4.66;68.11
7309;BME280;3695;53.330;9.876;2023-12-07T00:48:27;100764.03;;;4.86;68.27
7309;BME280;3695;53.330;9.876;2023-12-07T00:50:54;100770.44;;;4.93;68.34
7309;BME280;3695;53.330;9.876;2023-12-07T00:53:20;100769.13;;;5.03;68.10
7309;BME280;3695;53.330;9.876;2023-12-07T00:55:47;100777.06;;;4.86;68.24
7309;BME280;3695;53.330;9.876;2023-12-07T00:58:13;100770.59;;;4.78;68.05
7309;BME280;3695;53.330;9.876;2023-12-07T01:00:41;100772.78;;;4.69;67.61
7309;BME280;3695;53.330;9.876;2023-12-07T01:03:08;100772.88;;;4.90;67.83
7309;BME280;3695;53.330;9.876;2023-12-07T01:05:34;100777.09;;;5.06;67.80
7309;BME280;3695;53.330;9.876;2023-12-07T01:08:02;100781.31;;;4.67;67.77
7309;BME280;3695;53.330;9.876;2023-12-07T01:10:29;100788.28;;;4.85;68.41
7309;BME280;3695;53.330;9.876;2023-12-07T01:12:57;100786.72;;;4.89;68.10
7309;BME280;3695;53.330;9.876;2023-12-07T01:15:23;100794.63;;;5.10;68.15
7309;BME280;3695;53.330;9.876;2023-12-07T01:17:51;100793.75;;;5.09;67.84
7309;BME280;3695;53.330;9.876;2023-12-07T01:20:18;100799.25;;;5.15;67.74
7309;BME280;3695;53.330;9.876;2023-12-07T01:22:45;100803.34;;;5.10;67.70
7309;BME280;3695;53.330;9.876;2023-12-07T01:25:12;100798.09;;;4.91;68.11
7309;BME280;3695;53.330;9.876;2023-12-07T01:27:42;100807.13;;;5.17;67.74
7309;BME280;3695;53.330;9.876;2023-12-07T01:30:09;100801.06;;;4.99;67.50
7309;BME280;3695;53.330;9.876;2023-12-07T01:32:35;100810.09;;;4.87;67.85
7309;BME280;3695;53.330;9.876;2023-12-07T01:35:04;100816.66;;;5.16;68.04
7309;BME280;3695;53.330;9.876;2023-12-07T01:37:30;100806.13;;;4.96;67.76
7309;BME280;3695;53.330;9.876;2023-12-07T01:39:57;100812.09;;;4.93;67.75
7309;BME280;3695;53.330;9.876;2023-12-07T01:42:23;100812.88;;;5.10;67.81
7309;BME280;3695;53.330;9.876;2023-12-07T01:44:50;100816.00;;;5.03;67.50
7309;BME280;3695;53.330;9.876;2023-12-07T01:47:17;100815.94;;;5.01;67.96
7309;BME280;3695;53.330;9.876;2023-12-07T01:49:43;100809.81;;;5.01;68.14
7309;BME280;3695;53.330;9.876;2023-12-07T01:52:12;100814.22;;;5.02;68.11
7309;BME280;3695;53.330;9.876;2023-12-07T01:54:39;100821.94;;;5.18;67.69
7309;BME280;3695;53.330;9.876;2023-12-07T01:57:06;100828.09;;;5.20;67.38
7309;BME280;3695;53.330;9.876;2023-12-07T01:59:33;100826.94;;;4.96;67.90
7309;BME280;3695;53.330;9.876;2023-12-07T02:02:00;100823.09;;;5.05;67.87
7309;BME280;3695;53.330;9.876;2023-12-07T02:04:26;100830.91;;;5.24;66.99
7309;BME280;3695;53.330;9.876;2023-12-07T02:06:56;100832.22;;;5.15;67.19
7309;BME280;3695;53.330;9.876;2023-12-07T02:09:24;100829.75;;;5.18;67.66
7309;BME280;3695;53.330;9.876;2023-12-07T02:11:51;100832.84;;;5.28;67.49
7309;BME280;3695;53.330;9.876;2023-12-07T02:14:17;100839.91;;;5.31;67.85
7309;BME280;3695;53.330;9.876;2023-12-07T02:16:47;100825.75;;;5.07;66.92
7309;BME280;3695;53.330;9.876;2023-12-07T02:19:31;100835.72;;;5.15;67.05
7309;BME280;3695;53.330;9.876;2023-12-07T02:22:09;100837.78;;;5.22;67.07
7309;BME280;3695;53.330;9.876;2023-12-07T02:24:48;100842.09;;;5.22;67.49
7309;BME280;3695;53.330;9.876;2023-12-07T02:27:34;100834.41;;;5.06;67.74
7309;BME280;3695;53.330;9.876;2023-12-07T02:30:01;100843.06;;;5.24;67.26
7309;BME280;3695;53.330;9.876;2023-12-07T02:32:27;100846.63;;;5.26;67.46
7309;BME280;3695;53.330;9.876;2023-12-07T02:34:54;100843.03;;;5.05;67.17
7309;BME280;3695;53.330;9.876;2023-12-07T02:37:21;100836.84;;;5.03;67.14
7309;BME280;3695;53.330;9.876;2023-12-07T02:39:51;100839.41;;;5.20;67.55
7309;BME280;3695;53.330;9.876;2023-12-07T02:42:19;100834.97;;;5.18;67.18
7309;BME280;3695;53.330;9.876;2023-12-07T02:44:51;100841.25;;;5.04;67.90
7309;BME280;3695;53.330;9.876;2023-12-07T02:47:18;100843.69;;;5.18;67.92
7309;BME280;3695;53.330;9.876;2023-12-07T02:49:44;100844.91;;;5.26;67.68
7309;BME280;3695;53.330;9.876;2023-12-07T02:52:11;100841.00;;;5.17;67.57
7309;BME280;3695;53.330;9.876;2023-12-07T02:54:38;100848.13;;;5.21;67.45
7309;BME280;3695;53.330;9.876;2023-12-07T02:57:04;100851.09;;;5.28;67.52
7309;BME280;3695;53.330;9.876;2023-12-07T02:59:31;100854.31;;;5.23;67.46
7309;BME280;3695;53.330;9.876;2023-12-07T03:01:59;100858.47;;;5.19;66.93
7309;BME280;3695;53.330;9.876;2023-12-07T03:04:25;100851.63;;;5.21;67.18
7309;BME280;3695;53.330;9.876;2023-12-07T03:06:52;100859.22;;;5.17;67.86
7309;BME280;3695;53.330;9.876;2023-12-07T03:09:18;100857.72;;;5.22;67.42
7309;BME280;3695;53.330;9.876;2023-12-07T03:11:45;100857.69;;;5.03;67.97
7309;BME280;3695;53.330;9.876;2023-12-07T03:14:11;100857.91;;;4.89;67.69
7309;BME280;3695;53.330;9.876;2023-12-07T03:16:38;100864.16;;;5.11;67.41
7309;BME280;3695;53.330;9.876;2023-12-07T03:19:06;100868.31;;;5.07;67.76
7309;BME280;3695;53.330;9.876;2023-12-07T03:21:33;100862.38;;;5.10;67.21
7309;BME280;3695;53.330;9.876;2023-12-07T03:23:59;100855.88;;;5.02;68.07
7309;BME280;3695;53.330;9.876;2023-12-07T03:26:26;100857.53;;;5.17;68.04
7309;BME280;3695;53.330;9.876;2023-12-07T03:28:52;100850.56;;;4.99;67.70
7309;BME280;3695;53.330;9.876;2023-12-07T03:31:19;100852.00;;;5.29;68.18
7309;BME280;3695;53.330;9.876;2023-12-07T03:33:45;100852.44;;;5.20;67.93
7309;BME280;3695;53.330;9.876;2023-12-07T03:36:13;100868.69;;;5.15;67.81
7309;BME280;3695;53.330;9.876;2023-12-07T03:38:40;100854.31;;;5.23;67.50
7309;BME280;3695;53.330;9.876;2023-12-07T03:41:06;100852.88;;;5.29;67.90
7309;BME280;3695;53.330;9.876;2023-12-07T03:43:33;100853.34;;;5.21;67.66
7309;BME280;3695;53.330;9.876;2023-12-07T03:45:59;100847.31;;;5.22;67.09
7309;BME280;3695;53.330;9.876;2023-12-07T03:48:26;100847.09;;;5.37;67.76
7309;BME280;3695;53.330;9.876;2023-12-07T03:50:52;100859.00;;;5.30;67.75
7309;BME280;3695;53.330;9.876;2023-12-07T03:53:20;100864.47;;;5.36;66.99
7309;BME280;3695;53.330;9.876;2023-12-07T03:55:47;100854.72;;;5.32;66.99
7309;BME280;3695;53.330;9.876;2023-12-07T03:58:13;100858.75;;;5.25;67.45
7309;BME280;3695;53.330;9.876;2023-12-07T04:00:40;100859.44;;;5.21;67.03
7309;BME280;3695;53.330;9.876;2023-12-07T04:03:06;100867.50;;;4.90;67.70
7309;BME280;3695;53.330;9.876;2023-12-07T04:05:33;100862.41;;;5.29;67.37
7309;BME280;3695;53.330;9.876;2023-12-07T04:08:00;100879.00;;;5.13;67.20
7309;BME280;3695;53.330;9.876;2023-12-07T04:10:27;100875.44;;;5.29;68.09
7309;BME280;3695;53.330;9.876;2023-12-07T04:12:54;100870.63;;;5.38;67.22
7309;BME280;3695;53.330;9.876;2023-12-07T04:15:20;100862.13;;;5.23;67.53
7309;BME280;3695;53.330;9.876;2023-12-07T04:17:48;100865.28;;;5.35;66.96
7309;BME280;3695;53.330;9.876;2023-12-07T04:20:15;100863.31;;;5.29;67.49
7309;BME280;3695;53.330;9.876;2023-12-07T04:22:43;100874.88;;;5.17;67.31
7309;BME280;3695;53.330;9.876;2023-12-07T04:25:10;100873.56;;;5.26;67.96
7309;BME280;3695;53.330;9.876;2023-12-07T04:27:38;100871.06;;;5.47;67.76
7309;BME280;3695;53.330;9.876;2023-12-07T04:30:06;100875.72;;;5.35;67.11
7309;BME280;3695;53.330;9.876;2023-12-07T04:32:32;100885.22;;;4.98;67.21
7309;BME280;3695;53.330;9.876;2023-12-07T04:34:59;100885.81;;;4.92;67.89
7309;BME280;3695;53.330;9.876;2023-12-07T04:37:25;100890.50;;;4.99;67.72
7309;BME280;3695;53.330;9.876;2023-12-07T04:39:52;100894.53;;;4.93;67.76
7309;BME280;3695;53.330;9.876;2023-12-07T04:42:18;100894.75;;;4.97;67.65
7309;BME280;3695;53.330;9.876;2023-12-07T04:44:46;100893.84;;;4.97;68.48
7309;BME280;3695;53.330;9.876;2023-12-07T04:47:13;100893.47;;;5.07;68.00
7309;BME280;3695;53.330;9.876;2023-12-07T04:49:40;100896.88;;;5.23;68.03
7309;BME280;3695;53.330;9.876;2023-12-07T04:52:06;100896.66;;;5.19;67.41
7309;BME280;3695;53.330;9.876;2023-12-07T04:54:33;100894.34;;;5.25;68.31
7309;BME280;3695;53.330;9.876;2023-12-07T04:56:59;100886.16;;;5.35;68.54
7309;BME280;3695;53.330;9.876;2023-12-07T04:59:26;100889.97;;;5.43;67.55
7309;BME280;3695;53.330;9.876;2023-12-07T05:01:54;100898.38;;;5.18;67.49
7309;BME280;3695;53.330;9.876;2023-12-07T05:04:20;100901.84;;;5.19;68.08
7309;BME280;3695;53.330;9.876;2023-12-07T05:06:47;100901.78;;;5.35;67.57
7309;BME280;3695;53.330;9.876;2023-12-07T05:09:13;100902.47;;;5.50;67.30
7309;BME280;3695;53.330;9.876;2023-12-07T05:11:40;100908.13;;;5.22;67.27
7309;BME280;3695;53.330;9.876;2023-12-07T05:14:07;100903.06;;;5.08;68.05
7309;BME280;3695;53.330;9.876;2023-12-07T05:16:33;100906.34;;;5.21;67.85
7309;BME280;3695;53.330;9.876;2023-12-07T05:19:01;100915.13;;;5.06;68.13
7309;BME280;3695;53.330;9.876;2023-12-07T05:21:28;100905.03;;;5.31;67.53
7309;BME280;3695;53.330;9.876;2023-12-07T05:23:54;100910.53;;;5.37;67.84
7309;BME280;3695;53.330;9.876;2023-12-07T05:26:21;100908.19;;;5.24;68.29
7309;BME280;3695;53.330;9.876;2023-12-07T05:28:47;100903.00;;;5.24;67.22
7309;BME280;3695;53.330;9.876;2023-12-07T05:31:16;100907.00;;;5.35;68.17
7309;BME280;3695;53.330;9.876;2023-12-07T05:33:42;100901.91;;;5.38;67.49
7309;BME280;3695;53.330;9.876;2023-12-07T05:36:10;100904.69;;;5.23;68.30
7309;BME280;3695;53.330;9.876;2023-12-07T05:38:37;100901.03;;;5.20;68.01
7309;BME280;3695;53.330;9.876;2023-12-07T05:41:04;100904.75;;;5.25;68.05
7309;BME280;3695;53.330;9.876;2023-12-07T05:43:30;100907.56;;;5.47;68.19
7309;BME280;3695;53.330;9.876;2023-12-07T05:45:58;100912.31;;;5.38;67.21
7309;BME280;3695;53.330;9.876;2023-12-07T05:48:25;100906.91;;;5.33;67.41
7309;BME280;3695;53.330;9.876;2023-12-07T05:50:52;100902.19;;;5.44;68.21
7309;BME280;3695;53.330;9.876;2023-12-07T05:53:20;100901.66;;;5.14;67.76
7309;BME280;3695;53.330;9.876;2023-12-07T05:55:46;100902.84;;;5.21;68.25
7309;BME280;3695;53.330;9.876;2023-12-07T05:58:13;100908.84;;;5.20;67.77
7309;BME280;3695;53.330;9.876;2023-12-07T06:00:39;100909.69;;;5.01;68.39
7309;BME280;3695;53.330;9.876;2023-12-07T06:03:06;100907.25;;;5.04;68.12
7309;BME280;3695;53.330;9.876;2023-12-07T06:05:34;100909.97;;;5.25;68.70
7309;BME280;3695;53.330;9.876;2023-12-07T06:08:00;100908.66;;;4.98;68.05
7309;BME280;3695;53.330;9.876;2023-12-07T06:10:29;100916.84;;;4.87;68.68
7309;BME280;3695;53.330;9.876;2023-12-07T06:12:56;100913.50;;;4.90;69.19
7309;BME280;3695;53.330;9.876;2023-12-07T06:15:23;100911.19;;;4.96;68.97
7309;BME280;3695;53.330;9.876;2023-12-07T06:17:50;100914.28;;;5.24;67.93
7309;BME280;3695;53.330;9.876;2023-12-07T06:20:16;100917.34;;;5.33;68.82
7309;BME280;3695;53.330;9.876;2023-12-07T06:22:43;100915.34;;;5.28;67.83
7309;BME280;3695;53.330;9.876;2023-12-07T06:25:10;100923.16;;;5.28;68.10
7309;BME280;3695;53.330;9.876;2023-12-07T06:27:39;100915.34;;;5.28;68.33
7309;BME280;3695;53.330;9.876;2023-12-07T06:30:06;100920.34;;;5.43;67.94
7309;BME280;3695;53.330;9.876;2023-12-07T06:32:33;100921.84;;;5.38;67.67
7309;BME280;3695;53.330;9.876;2023-12-07T06:35:00;100919.13;;;5.35;68.25
7309;BME280;3695;53.330;9.876;2023-12-07T06:37:26;100934.22;;;5.42;67.28
7309;BME280;3695;53.330;9.876;2023-12-07T06:39:53;100930.59;;;5.20;67.79
7309;BME280;3695;53.330;9.876;2023-12-07T06:42:19;100927.97;;;5.38;67.27
7309;BME280;3695;53.330;9.876;2023-12-07T06:44:48;100929.75;;;5.39;68.21
7309;BME280;3695;53.330;9.876;2023-12-07T06:47:14;100927.78;;;5.16;67.98
7309;BME280;3695;53.330;9.876;2023-12-07T06:49:40;100929.94;;;5.07;68.15
7309;BME280;3695;53.330;9.876;2023-12-07T06:52:07;100943.13;;;5.10;67.54
7309;BME280;3695;53.330;9.876;2023-12-07T06:54:34;100938.69;;;5.44;67.63
7309;BME280;3695;53.330;9.876;2023-12-07T06:57:00;100948.16;;;5.24;67.57
7309;BME280;3695;53.330;9.876;2023-12-07T06:59:27;100942.53;;;5.52;67.66
7309;BME280;3695;53.330;9.876;2023-12-07T07:01:55;100948.28;;;5.45;67.04
7309;BME280;3695;53.330;9.876;2023-12-07T07:04:21;100941.38;;;5.28;67.28
7309;BME280;3695;53.330;9.876;2023-12-07T07:06:48;100948.22;;;5.44;67.63
7309;BME280;3695;53.330;9.876;2023-12-07T07:09:14;100949.88;;;5.24;67.60
7309;BME280;3695;53.330;9.876;2023-12-07T07:11:41;100954.09;;;5.40;67.18
7309;BME280;3695;53.330;9.876;2023-12-07T07:14:08;100956.50;;;5.35;67.68
7309;BME280;3695;53.330;9.876;2023-12-07T07:16:35;100955.69;;;5.36;68.01
7309;BME280;3695;53.330;9.876;2023-12-07T07:19:02;100960.97;;;5.02;67.71
7309;BME280;3695;53.330;9.876;2023-12-07T07:21:29;100960.66;;;5.14;68.30
7309;BME280;3695;53.330;9.876;2023-12-07T07:23:55;100960.81;;;5.17;68.15
7309;BME280;3695;53.330;9.876;2023-12-07T07:26:22;100969.38;;;5.32;68.50
7309;BME280;3695;53.330;9.876;2023-12-07T07:28:50;100959.09;;;5.53;68.33
7309;BME280;3695;53.330;9.876;2023-12-07T07:31:17;100959.56;;;5.63;67.71
7309;BME280;3695;53.330;9.876;2023-12-07T07:33:43;100954.78;;;5.36;67.35
7309;BME280;3695;53.330;9.876;2023-12-07T07:36:13;100964.44;;;5.38;67.33
7309;BME280;3695;53.330;9.876;2023-12-07T07:38:40;100960.13;;;5.39;67.72
7309;BME280;3695;53.330;9.876;2023-12-07T07:41:07;100961.91;;;5.57;67.71
7309;BME280;3695;53.330;9.876;2023-12-07T07:43:33;100972.56;;;5.44;67.59
7309;BME280;3695;53.330;9.876;2023-12-07T07:46:00;100965.75;;;5.65;67.59
7309;BME280;3695;53.330;9.876;2023-12-07T07:48:27;100974.63;;;5.51;67.60
7309;BME280;3695;53.330;9.876;2023-12-07T07:50:53;100977.97;;;5.49;66.99
7309;BME280;3695;53.330;9.876;2023-12-07T07:53:21;100976.81;;;5.42;67.70
7309;BME280;3695;53.330;9.876;2023-12-07T07:55:48;100976.50;;;5.54;67.74
7309;BME280;3695;53.330;9.876;2023-12-07T07:58:14;100983.19;;;5.49;67.83
7309;BME280;3695;53.330;9.876;2023-12-07T08:00:41;100977.78;;;5.44;67.67
7309;BME280;3695;53.330;9.876;2023-12-07T08:03:07;100977.16;;;5.50;68.06
7309;BME280;3695;53.330;9.876;2023-12-07T08:05:34;100987.31;;;5.26;67.95
7309;BME280;3695;53.330;9.876;2023-12-07T08:08:01;100988.59;;;5.34;67.86
7309;BME280;3695;53.330;9.876;2023-12-07T08:10:28;100995.72;;;5.38;67.56
7309;BME280;3695;53.330;9.876;2023-12-07T08:12:55;100988.13;;;5.43;67.77
7309;BME280;3695;53.330;9.876;2023-12-07T08:15:21;101000.81;;;5.35;68.10
7309;BME280;3695;53.330;9.876;2023-12-07T08:17:48;100991.41;;;5.21;67.75
7309;BME280;3695;53.330;9.876;2023-12-07T08:20:16;101001.03;;;5.22;68.16
7309;BME280;3695;53.330;9.876;2023-12-07T08:22:43;101002.28;;;5.48;68.44
7309;BME280;3695;53.330;9.876;2023-12-07T08:25:10;101000.09;;;5.57;68.13
7309;BME280;3695;53.330;9.876;2023-12-07T08:27:39;101001.97;;;5.59;67.98
7309;BME280;3695;53.330;9.876;2023-12-07T08:30:06;101001.66;;;5.71;67.42
7309;BME280;3695;53.330;9.876;2023-12-07T08:32:34;101004.66;;;5.43;67.71
7309;BME280;3695;53.330;9.876;2023-12-07T08:35:01;101012.53;;;5.62;67.37
7309;BME280;3695;53.330;9.876;2023-12-07T08:37:27;101006.13;;;5.56;67.58
7309;BME280;3695;53.330;9.876;2023-12-07T08:39:54;101003.31;;;5.51;67.75
7309;BME280;3695;53.330;9.876;2023-12-07T08:42:21;101001.97;;;5.59;67.81
7309;BME280;3695;53.330;9.876;2023-12-07T08:44:49;101009.03;;;5.44;68.04
7309;BME280;3695;53.330;9.876;2023-12-07T08:47:15;101002.88;;;5.60;67.72
7309;BME280;3695;53.330;9.876;2023-12-07T08:49:42;100996.16;;;5.65;67.41
7309;BME280;3695;53.330;9.876;2023-12-07T08:52:10;100997.81;;;5.45;67.96
7309;BME280;3695;53.330;9.876;2023-12-07T08:54:36;101002.94;;;5.44;67.73
7309;BME280;3695;53.330;9.876;2023-12-07T08:57:03;101008.66;;;5.37;67.60
7309;BME280;3695;53.330;9.876;2023-12-07T08:59:30;101000.63;;;5.50;67.57
7309;BME280;3695;53.330;9.876;2023-12-07T09:01:58;101006.09;;;5.91;67.91
7309;BME280;3695;53.330;9.876;2023-12-07T09:04:27;101008.66;;;5.72;67.08
7309;BME280;3695;53.330;9.876;2023-12-07T09:06:54;101012.59;;;5.82;67.67
7309;BME280;3695;53.330;9.876;2023-12-07T09:09:21;101006.59;;;5.65;68.01
7309;BME280;3695;53.330;9.876;2023-12-07T09:11:48;101010.19;;;5.86;67.96
7309;BME280;3695;53.330;9.876;2023-12-07T09:14:15;101014.91;;;5.93;67.19
7309;BME280;3695;53.330;9.876;2023-12-07T09:16:45;101016.69;;;5.77;67.41
7309;BME280;3695;53.330;9.876;2023-12-07T09:19:13;101010.38;;;5.89;67.51
7309;BME280;3695;53.330;9.876;2023-12-07T09:21:40;101014.16;;;5.96;66.85
7309;BME280;3695;53.330;9.876;2023-12-07T09:24:06;101018.81;;;6.03;66.98
7309;BME280;3695;53.330;9.876;2023-12-07T09:26:33;101019.50;;;5.99;67.57
7309;BME280;3695;53.330;9.876;2023-12-07T09:29:00;101011.13;;;6.06;67.41
7309;BME280;3695;53.330;9.876;2023-12-07T09:31:27;101015.81;;;6.13;67.07
7309;BME280;3695;53.330;9.876;2023-12-07T09:33:53;101017.44;;;5.92;66.41
7309;BME280;3695;53.330;9.876;2023-12-07T09:36:22;101021.41;;;6.03;66.87
7309;BME280;3695;53.330;9.876;2023-12-07T09:38:49;101023.09;;;6.01;66.99
7309;BME280;3695;53.330;9.876;2023-12-07T09:41:16;101021.03;;;6.13;66.73
7309;BME280;3695;53.330;9.876;2023-12-07T09:43:42;101024.13;;;5.87;67.19
7309;BME280;3695;53.330;9.876;2023-12-07T09:46:09;101018.91;;;5.87;67.27
7309;BME280;3695;53.330;9.876;2023-12-07T09:48:37;101019.16;;;6.10;67.02
7309;BME280;3695;53.330;9.876;2023-12-07T09:51:09;101028.78;;;6.11;67.34
7309;BME280;3695;53.330;9.876;2023-12-07T09:53:39;101016.28;;;5.87;66.53
7309;BME280;3695;53.330;9.876;2023-12-07T09:56:09;101024.31;;;5.72;66.72
7309;BME280;3695;53.330;9.876;2023-12-07T09:58:36;101022.81;;;5.95;67.43
7309;BME280;3695;53.330;9.876;2023-12-07T10:01:03;101031.38;;;5.92;67.55
7309;BME280;3695;53.330;9.876;2023-12-07T10:03:29;101023.34;;;5.88;67.06
7309;BME280;3695;53.330;9.876;2023-12-07T10:05:57;101027.72;;;5.89;67.16
7309;BME280;3695;53.330;9.876;2023-12-07T10:08:28;101026.16;;;5.92;67.70
7309;BME280;3695;53.330;9.876;2023-12-07T10:11:04;101030.75;;;5.98;67.33
7309;BME280;3695;53.330;9.876;2023-12-07T10:13:33;101027.41;;;6.00;66.73
7309;BME280;3695;53.330;9.876;2023-12-07T10:16:07;101030.38;;;6.08;66.85
7309;BME280;3695;53.330;9.876;2023-12-07T10:18:35;101036.34;;;6.05;67.40
7309;BME280;3695;53.330;9.876;2023-12-07T10:21:01;101029.53;;;5.72;66.68
7309;BME280;3695;53.330;9.876;2023-12-07T10:23:29;101022.31;;;5.86;67.28
7309;BME280;3695;53.330;9.876;2023-12-07T10:25:58;101026.50;;;6.00;67.40
7309;BME280;3695;53.330;9.876;2023-12-07T10:28:26;101027.69;;;6.06;67.24
7309;BME280;3695;53.330;9.876;2023-12-07T10:30:53;101018.63;;;5.81;66.94
7309;BME280;3695;53.330;9.876;2023-12-07T10:33:19;101022.09;;;5.99;66.86
7309;BME280;3695;53.330;9.876;2023-12-07T10:35:47;101025.50;;;5.96;67.28
7309;BME280;3695;53.330;9.876;2023-12-07T10:38:14;101025.91;;;6.05;67.12
7309;BME280;3695;53.330;9.876;2023-12-07T10:40:40;101019.72;;;6.23;66.80
7309;BME280;3695;53.330;9.876;2023-12-07T10:43:08;101018.16;;;6.26;66.84
7309;BME280;3695;53.330;9.876;2023-12-07T10:45:36;101026.38;;;6.35;66.55
7309;BME280;3695;53.330;9.876;2023-12-07T10:48:05;101033.94;;;6.29;66.56
7309;BME280;3695;53.330;9.876;2023-12-07T10:50:34;101022.50;;;6.26;66.69
7309;BME280;3695;53.330;9.876;2023-12-07T10:53:08;101024.06;;;6.22;66.85
7309;BME280;3695;53.330;9.876;2023-12-07T10:55:41;101025.84;;;6.23;66.30
7309;BME280;3695;53.330;9.876;2023-12-07T10:58:09;101030.59;;;6.32;66.82
7309;BME280;3695;53.330;9.876;2023-12-07T11:00:42;101026.09;;;6.10;66.69
7309;BME280;3695;53.330;9.876;2023-12-07T11:03:13;101027.00;;;6.30;66.86
7309;BME280;3695;53.330;9.876;2023-12-07T11:05:41;101022.69;;;6.30;67.10
7309;BME280;3695;53.330;9.876;2023-12-07T11:08:11;101016.09;;;6.38;66.87
7309;BME280;3695;53.330;9.876;2023-12-07T11:10:45;101020.00;;;6.29;66.89
7309;BME280;3695;53.330;9.876;2023-12-07T11:13:18;101018.22;;;6.28;66.22
7309;BME280;3695;53.330;9.876;2023-12-07T11:15:47;101015.75;;;6.31;66.64
7309;BME280;3695;53.330;9.876;2023-12-07T11:18:14;101008.28;;;6.19;66.85
7309;BME280;3695;53.330;9.876;2023-12-07T11:20:42;101012.09;;;6.27;66.44
7309;BME280;3695;53.330;9.876;2023-12-07T11:23:09;101005.59;;;6.18;66.83
7309;BME280;3695;53.330;9.876;2023-12-07T11:25:36;101004.28;;;6.08;66.45
7309;BME280;3695;53.330;9.876;2023-12-07T11:28:04;101008.66;;;6.28;66.78
7309;BME280;3695;53.330;9.876;2023-12-07T11:30:32;101005.13;;;6.26;66.51
7309;BME280;3695;53.330;9.876;2023-12-07T11:33:00;101006.59;;;6.21;66.22
7309;BME280;3695;53.330;9.876;2023-12-07T11:35:27;101007.66;;;6.44;66.51
7309;BME280;3695;53.330;9.876;2023-12-07T11:38:02;101005.94;;;6.44;66.54
7309;BME280;3695;53.330;9.876;2023-12-07T11:40:29;101002.53;;;6.47;66.57
7309;BME280;3695;53.330;9.876;2023-12-07T11:42:57;101006.94;;;6.48;66.61
7309;BME280;3695;53.330;9.876;2023-12-07T11:45:39;100998.50;;;6.15;66.31
7309;BME280;3695;53.330;9.876;2023-12-07T11:48:08;101003.16;;;6.22;66.96
7309;BME280;3695;53.330;9.876;2023-12-07T11:50:35;101003.66;;;6.13;67.09
7309;BME280;3695;53.330;9.876;2023-12-07T11:53:01;101001.09;;;6.15;67.12
7309;BME280;3695;53.330;9.876;2023-12-07T11:55:28;100990.28;;;6.44;66.82
7309;BME280;3695;53.330;9.876;2023-12-07T11:57:54;100991.91;;;6.42;66.74
7309;BME280;3695;53.330;9.876;2023-12-07T12:00:21;100993.78;;;6.26;67.26
7309;BME280;3695;53.330;9.876;2023-12-07T12:02:47;100989.69;;;6.51;66.98
7309;BME280;3695;53.330;9.876;2023-12-07T12:05:15;100975.69;;;6.49;66.63
7309;BME280;3695;53.330;9.876;2023-12-07T12:07:42;100986.81;;;6.45;66.73
7309;BME280;3695;53.330;9.876;2023-12-07T12:10:09;100989.41;;;6.65;66.25
7309;BME280;3695;53.330;9.876;2023-12-07T12:12:35;100983.81;;;6.36;66.62
7309;BME280;3695;53.330;9.876;2023-12-07T12:15:02;100980.75;;;6.26;66.83
7309;BME280;3695;53.330;9.876;2023-12-07T12:17:29;100970.78;;;6.57;66.95
7309;BME280;3695;53.330;9.876;2023-12-07T12:19:57;100970.00;;;6.39;67.09
7309;BME280;3695;53.330;9.876;2023-12-07T12:22:25;100971.56;;;6.54;66.40
7309;BME280;3695;53.330;9.876;2023-12-07T12:24:51;100967.88;;;6.49;66.29
7309;BME280;3695;53.330;9.876;2023-12-07T12:27:18;100973.38;;;6.57;66.37
7309;BME280;3695;53.330;9.876;2023-12-07T12:29:45;100968.50;;;6.65;66.61
7309;BME280;3695;53.330;9.876;2023-12-07T12:32:12;100970.47;;;6.70;66.34
7309;BME280;3695;53.330;9.876;2023-12-07T12:34:39;100969.03;;;6.56;66.25
7309;BME280;3695;53.330;9.876;2023-12-07T12:37:05;100969.31;;;6.64;66.31
7309;BME280;3695;53.330;9.876;2023-12-07T12:39:35;100964.38;;;6.70;66.03
7309;BME280;3695;53.330;9.876;2023-12-07T12:42:03;100960.03;;;6.70;66.17
7309;BME280;3695;53.330;9.876;2023-12-07T12:44:30;100969.97;;;6.58;66.22
7309;BME280;3695;53.330;9.876;2023-12-07T12:46:56;100964.31;;;6.28;66.72
7309;BME280;3695;53.330;9.876;2023-12-07T12:49:34;100962.47;;;6.66;66.56
7309;BME280;3695;53.330;9.876;2023-12-07T12:52:01;100956.78;;;6.55;66.24
7309;BME280;3695;53.330;9.876;2023-12-07T12:54:30;100953.84;;;6.47;66.21
7309;BME280;3695;53.330;9.876;2023-12-07T12:56:59;100955.84;;;6.34;66.91
7309;BME280;3695;53.330;9.876;2023-12-07T12:59:25;100954.09;;;6.53;66.68
7309;BME280;3695;53.330;9.876;2023-12-07T13:01:52;100957.28;;;6.46;66.73
7309;BME280;3695;53.330;9.876;2023-12-07T13:04:18;100952.56;;;6.59;66.63
7309;BME280;3695;53.330;9.876;2023-12-07T13:06:45;100947.38;;;6.39;66.73
7309;BME280;3695;53.330;9.876;2023-12-07T13:09:11;100942.13;;;6.59;66.60
7309;BME280;3695;53.330;9.876;2023-12-07T13:11:38;100948.34;;;6.41;66.57
7309;BME280;3695;53.330;9.876;2023-12-07T13:14:06;100942.69;;;6.11;67.22
7309;BME280;3695;53.330;9.876;2023-12-07T13:16:33;100955.38;;;6.23;67.59
7309;BME280;3695;53.330;9.876;2023-12-07T13:18:59;100948.50;;;6.44;66.87
7309;BME280;3695;53.330;9.876;2023-12-07T13:21:26;100939.25;;;6.52;67.15
7309;BME280;3695;53.330;9.876;2023-12-07T13:23:52;100937.16;;;6.65;67.17